createdAt,value
2022-12-18T00:00:42.533Z,8.85
2022-12-18T00:05:34.324Z,7.72
2022-12-18T00:10:26.003Z,6.43
2022-12-18T00:15:17.847Z,5.65
2022-12-18T00:20:10.294Z,6.78
2022-12-18T00:25:02.108Z,6.32
2022-12-18T00:29:53.764Z,7.45
2022-12-18T00:34:45.396Z,6.47
2022-12-18T00:39:37.051Z,5.75
2022-12-18T00:44:28.653Z,6.40
2022-12-18T00:49:21.228Z,5.85
2022-12-18T00:54:13.073Z,5.80
2022-12-18T00:59:05.266Z,6.03
2022-12-18T01:03:58.260Z,5.47
2022-12-18T01:08:49.856Z,5.25
2022-12-18T01:13:41.961Z,6.82
2022-12-18T01:18:34.092Z,7.22
2022-12-18T01:23:26.171Z,5.95
2022-12-18T01:28:18.035Z,6.97
2022-12-18T01:33:09.635Z,9.52
2022-12-18T01:38:01.343Z,5.57
2022-12-18T01:42:53.755Z,8.02
2022-12-18T01:47:56.215Z,7.22
2022-12-18T01:52:51.040Z,5.97
2022-12-18T01:57:43.255Z,6.93
2022-12-18T02:02:35.056Z,6.32
2022-12-18T02:07:41.633Z,7.45
2022-12-18T02:12:57.708Z,7.53
2022-12-18T02:17:55.871Z,10.48
2022-12-18T02:23:19.891Z,8.65
2022-12-18T02:28:16.431Z,10.43
2022-12-18T02:33:11.033Z,6.10
2022-12-18T02:38:05.158Z,7.13
2022-12-18T02:43:03.085Z,8.68
2022-12-18T02:47:54.936Z,7.15
2022-12-18T02:52:52.430Z,8.27
2022-12-18T02:57:51.728Z,15.47
2022-12-18T03:02:47.453Z,11.40
2022-12-18T03:07:57.932Z,9.00
2022-12-18T03:12:56.408Z,10.45
2022-12-18T03:17:56.072Z,10.70
2022-12-18T03:22:52.991Z,7.82
2022-12-18T03:27:50.074Z,8.83
2022-12-18T03:32:49.608Z,10.13
2022-12-18T03:37:41.384Z,10.18
2022-12-18T03:42:50.516Z,14.18
2022-12-18T03:47:59.287Z,12.07
2022-12-18T03:53:09.989Z,13.50
2022-12-18T03:58:04.624Z,12.25
2022-12-18T04:02:59.271Z,12.48
2022-12-18T04:07:52.983Z,12.80
2022-12-18T04:12:45.291Z,16.17
2022-12-18T04:17:37.025Z,15.68
2022-12-18T04:22:28.963Z,17.60
2022-12-18T04:27:20.607Z,12.43
2022-12-18T04:32:12.410Z,15.30
2022-12-18T04:37:04.090Z,16.80
2022-12-18T04:41:55.767Z,15.90
2022-12-18T04:46:47.734Z,15.23
2022-12-18T04:51:40.186Z,19.13
2022-12-18T04:56:33.162Z,16.08
2022-12-18T05:01:34.795Z,24.50
2022-12-18T05:06:26.908Z,24.95
2022-12-18T05:11:18.947Z,20.85
2022-12-18T05:16:11.254Z,24.75
2022-12-18T05:21:03.833Z,22.40
2022-12-18T05:25:58.249Z,21.65
2022-12-18T05:30:54.030Z,31.65
2022-12-18T05:35:45.996Z,25.17
2022-12-18T05:40:37.865Z,29.75
2022-12-18T05:45:29.440Z,31.98
2022-12-18T05:50:20.983Z,32.88
2022-12-18T05:55:12.606Z,27.42
2022-12-18T06:00:05.331Z,30.60
2022-12-18T06:04:56.964Z,26.02
2022-12-18T06:09:48.560Z,30.88
2022-12-18T06:14:40.168Z,31.52
2022-12-18T06:19:31.708Z,32.15
2022-12-18T06:24:23.268Z,32.20
2022-12-18T06:29:14.906Z,35.47
2022-12-18T06:34:06.609Z,31.10
2022-12-18T06:38:58.688Z,32.75
2022-12-18T06:43:50.523Z,37.65
2022-12-18T06:48:42.480Z,34.15
2022-12-18T06:53:34.506Z,25.38
2022-12-18T06:58:26.112Z,39.45
2022-12-18T07:03:17.763Z,35.33
2022-12-18T07:08:09.370Z,37.40
2022-12-18T07:13:01.787Z,39.70
2022-12-18T07:17:53.512Z,39.10
2022-12-18T07:22:45.075Z,38.50
2022-12-18T07:27:36.756Z,40.17
2022-12-18T07:32:28.427Z,37.08
2022-12-18T07:37:20.198Z,36.95
2022-12-18T07:42:30.799Z,41.17
2022-12-18T07:47:22.449Z,40.10
2022-12-18T07:52:14.047Z,41.45
2022-12-18T07:57:16.447Z,39.80
2022-12-18T08:02:17.456Z,39.30
2022-12-18T08:07:09.224Z,49.55
2022-12-18T08:12:00.880Z,46.20
2022-12-18T08:16:52.891Z,47.45
2022-12-18T08:21:44.678Z,43.13
2022-12-18T08:26:36.270Z,41.05
2022-12-18T08:31:29.850Z,41.40
2022-12-18T08:36:22.532Z,47.75
2022-12-18T08:41:16.775Z,36.28
2022-12-18T08:46:08.793Z,46.28
2022-12-18T08:51:00.918Z,48.65
2022-12-18T08:55:53.074Z,43.80
2022-12-18T09:00:44.715Z,42.58
2022-12-18T09:05:36.555Z,49.33
2022-12-18T09:10:28.171Z,48.22
2022-12-18T09:15:19.921Z,45.22
2022-12-18T09:20:12.781Z,47.08
2022-12-18T09:25:05.335Z,42.30
2022-12-18T09:29:56.967Z,41.03
2022-12-18T09:34:48.637Z,46.42
2022-12-18T09:39:41.178Z,45.40
2022-12-18T09:44:47.572Z,41.72
2022-12-18T09:49:45.540Z,42.42
2022-12-18T09:54:40.964Z,38.90
2022-12-18T09:59:40.250Z,36.15
2022-12-18T10:04:33.372Z,40.95
2022-12-18T10:09:38.615Z,35.67
2022-12-18T10:15:05.710Z,39.80
2022-12-18T10:20:07.755Z,37.78
2022-12-18T10:25:06.869Z,35.05
2022-12-18T10:29:59.143Z,28.23
2022-12-18T10:35:00.190Z,31.85
2022-12-18T10:40:10.487Z,34.88
2022-12-18T10:45:09.357Z,28.85
2022-12-18T10:50:01.065Z,36.13
2022-12-18T10:55:05.131Z,36.00
2022-12-18T10:59:59.071Z,31.02
2022-12-18T11:04:52.857Z,27.85
2022-12-18T11:09:44.538Z,24.77
2022-12-18T11:14:57.099Z,26.67
2022-12-18T11:19:57.124Z,28.90
2022-12-18T11:25:30.211Z,32.75
2022-12-18T11:30:22.290Z,29.92
2022-12-18T11:35:18.951Z,24.13
2022-12-18T11:40:19.693Z,26.15
2022-12-18T11:45:14.220Z,21.02
2022-12-18T11:50:17.671Z,27.52
2022-12-18T11:55:44.813Z,30.30
2022-12-18T12:00:49.572Z,28.02
2022-12-18T12:06:05.873Z,27.55
2022-12-18T12:11:06.064Z,23.38
2022-12-18T12:16:16.532Z,23.48
2022-12-18T12:21:14.447Z,24.60
2022-12-18T12:26:13.089Z,27.03
2022-12-18T12:31:04.836Z,25.98
2022-12-18T12:36:01.979Z,23.08
2022-12-18T12:41:33.875Z,28.95
2022-12-18T12:46:27.556Z,26.65
2022-12-18T12:51:29.294Z,24.92
2022-12-18T12:56:22.728Z,26.40
2022-12-18T13:01:24.285Z,25.98
2022-12-18T13:06:44.986Z,25.27
2022-12-18T13:12:00.003Z,28.55
2022-12-18T13:16:52.607Z,33.30
2022-12-18T13:21:54.728Z,27.27
2022-12-18T13:26:46.843Z,24.83
2022-12-18T13:31:42.359Z,26.98
2022-12-18T13:36:35.301Z,26.95
2022-12-18T13:41:30.179Z,29.05
2022-12-18T13:46:42.984Z,28.42
2022-12-18T13:51:35.874Z,29.17
2022-12-18T13:56:30.763Z,28.95
2022-12-18T14:01:24.252Z,31.33
2022-12-18T14:06:17.666Z,28.50
2022-12-18T14:11:22.091Z,25.05
2022-12-18T14:16:17.744Z,30.48
2022-12-18T14:21:19.157Z,23.48
2022-12-18T14:26:30.241Z,21.52
2022-12-18T14:31:24.918Z,29.05
2022-12-18T14:36:24.579Z,24.17
2022-12-18T14:41:18.409Z,27.15
2022-12-18T14:46:39.527Z,29.42
2022-12-18T14:51:34.346Z,24.27
2022-12-18T14:56:27.575Z,31.63
2022-12-18T15:01:26.295Z,29.73
2022-12-18T15:06:25.775Z,25.88
2022-12-18T15:11:28.173Z,26.70
2022-12-18T15:16:19.962Z,26.52
2022-12-18T15:21:17.432Z,24.13
2022-12-18T15:26:11.496Z,28.37
2022-12-18T15:31:10.163Z,23.70
2022-12-18T15:36:11.040Z,27.70
2022-12-18T15:41:03.232Z,26.08
2022-12-18T15:45:54.921Z,24.95
2022-12-18T15:50:46.972Z,22.08
2022-12-18T15:56:00.969Z,24.20
2022-12-18T16:01:00.208Z,22.17
2022-12-18T16:05:51.810Z,18.85
2022-12-18T16:10:43.618Z,17.15
2022-12-18T16:15:35.291Z,16.48
2022-12-18T16:20:27.064Z,15.65
2022-12-18T16:25:20.545Z,13.75
2022-12-18T16:30:16.937Z,11.15
2022-12-18T16:35:14.853Z,12.57
2022-12-18T16:40:09.904Z,13.07
2022-12-18T16:45:01.526Z,12.48
2022-12-18T16:49:53.393Z,12.52
2022-12-18T16:54:45.079Z,12.02
2022-12-18T16:59:36.927Z,9.60
2022-12-18T17:04:28.671Z,11.15
2022-12-18T17:09:25.568Z,9.50
2022-12-18T17:14:20.376Z,14.50
2022-12-18T17:19:17.092Z,12.23
2022-12-18T17:24:09.606Z,10.85
2022-12-18T17:29:01.596Z,9.00
2022-12-18T17:33:53.772Z,9.88
2022-12-18T17:38:54.291Z,10.43
2022-12-18T17:43:51.890Z,9.45
2022-12-18T17:48:43.635Z,10.47
2022-12-18T17:53:35.196Z,13.00
2022-12-18T17:58:30.584Z,10.23
2022-12-18T18:03:22.493Z,10.88
2022-12-18T18:08:14.313Z,10.00
2022-12-18T18:13:26.604Z,11.35
2022-12-18T18:18:19.572Z,8.88
2022-12-18T18:23:13.607Z,8.98
2022-12-18T18:28:05.455Z,9.35
2022-12-18T18:32:57.055Z,10.88
2022-12-18T18:37:49.344Z,10.55
2022-12-18T18:42:43.019Z,10.63
2022-12-18T18:47:34.657Z,10.95
2022-12-18T18:52:26.279Z,9.35
2022-12-18T18:57:20.705Z,9.20
2022-12-18T19:02:14.893Z,7.80
2022-12-18T19:07:07.808Z,8.15
2022-12-18T19:12:18.432Z,7.38
2022-12-18T19:17:10.375Z,8.88
2022-12-18T19:22:02.173Z,6.72
2022-12-18T19:26:54.167Z,6.13
2022-12-18T19:31:50.158Z,8.93
2022-12-18T19:36:42.136Z,7.95
2022-12-18T19:41:34.027Z,7.30
2022-12-18T19:46:26.868Z,7.18
2022-12-18T19:51:24.950Z,7.53
2022-12-18T19:56:19.349Z,6.97
2022-12-18T20:01:12.753Z,7.63
2022-12-18T20:06:26.814Z,6.18
2022-12-18T20:11:18.624Z,5.63
2022-12-18T20:16:10.838Z,6.32
2022-12-18T20:21:03.429Z,6.45
2022-12-18T20:25:56.121Z,8.13
2022-12-18T20:30:48.037Z,8.07
2022-12-18T20:35:39.667Z,7.97
2022-12-18T20:40:32.073Z,6.53
2022-12-18T20:45:23.795Z,6.28
2022-12-18T20:50:15.458Z,5.50
2022-12-18T20:55:07.589Z,7.18
2022-12-18T20:59:59.234Z,6.75
2022-12-18T21:04:50.848Z,5.85
2022-12-18T21:09:42.476Z,7.20
2022-12-18T21:14:34.420Z,8.38
2022-12-18T21:19:27.488Z,7.10
2022-12-18T21:24:19.912Z,7.00
2022-12-18T21:29:17.544Z,6.32
2022-12-18T21:34:14.863Z,7.93
2022-12-18T21:39:06.529Z,5.05
2022-12-18T21:44:07.445Z,9.50
2022-12-18T21:48:59.154Z,8.15
2022-12-18T21:53:50.842Z,8.82
2022-12-18T21:58:55.378Z,6.32
2022-12-18T22:03:49.140Z,6.75
2022-12-18T22:08:43.618Z,7.72
2022-12-18T22:13:35.620Z,7.13
2022-12-18T22:18:27.488Z,6.20
2022-12-18T22:23:19.125Z,6.70
2022-12-18T22:28:29.624Z,6.68
2022-12-18T22:33:21.251Z,7.57
2022-12-18T22:38:12.887Z,9.13
2022-12-18T22:43:04.574Z,7.20
2022-12-18T22:47:56.419Z,7.68
2022-12-18T22:52:48.025Z,12.52
2022-12-18T22:57:40.642Z,8.15
2022-12-18T23:07:29.625Z,7.25
2022-12-18T23:12:21.439Z,16.55
2022-12-18T23:17:13.533Z,17.92
2022-12-18T23:22:11.371Z,11.93
2022-12-18T23:31:58.400Z,5.50
2022-12-18T23:36:53.270Z,4.47
2022-12-18T23:41:47.652Z,4.50
2022-12-18T23:46:39.536Z,4.68
2022-12-18T23:51:32.086Z,4.60
2022-12-18T23:56:26.765Z,4.97
